CRK weather

Diosdado Macapagal International Airport
Angeles/Mabalacat, Pampanga Province, Philippines

Public forecast

Using degrees Celsius for public forecast. Weather courtesy of forecast.io.

Current aviation weather report (METAR) for Diosdado Macapagal International Airport

Retrieved 2020/03/29 19:00 UTC (1 minute ago):

RPLC 291900Z 27002KT 9999 FEW020 SCT300 24/20 Q1010 NOSIG RMK A2983

Aviation forecast (TAF) for Diosdado Macapagal International Airport

Retrieved 2020/03/29 18:03 UTC (58 minutes ago):

TAF RPLC 291700Z 2918/3024 09008KT 9999 FEW020 SCT300 TX35/3006Z TN24/2922Z TEMPO 2918/2924 36005KT FEW020 BKN100